Time;durP1;ratioP1;P1;durP2;ratioP2;P2;SDS_P1;SDS_P2;PMS_P1;PMS_P2;Temp;Humidity;BMP_temperature;BMP_pressure;BME280_temperature;BME280_humidity;BME280_pressure;Samples;Min_cycle;Max_cycle;Signal;HPM_P1;HPM_P2
2022/12/29 00:01:55;;;;;;;2.43;1.30;;;;;;;18.77;54.09;99931.78;5130632;27;20279;-67
2022/12/29 00:04:20;;;;;;;1.53;1.30;;;;;;;17.74;56.00;99930.47;5095478;27;20022;-67
2022/12/29 00:06:46;;;;;;;3.00;1.03;;;;;;;17.33;59.34;99910.59;5131104;27;20467;-67
2022/12/29 00:09:12;;;;;;;1.37;1.17;;;;;;;17.52;59.15;99913.13;5130081;27;20034;-68
2022/12/29 00:11:38;;;;;;;3.33;1.17;;;;;;;17.39;56.82;99894.44;5108106;27;20034;-68
2022/12/29 00:16:47;;;;;;;2.73;1.40;;;;;;;17.69;57.74;99895.50;5127893;27;20046;-68
2022/12/29 00:35:51;;;;;;;2.07;1.60;;;;;;;17.17;57.45;99868.28;5116097;27;20406;-68
2022/12/29 00:44:07;;;;;;;3.53;1.40;;;;;;;17.59;58.66;99855.50;5130571;27;20065;-67
2022/12/29 00:46:36;;;;;;;4.00;1.40;;;;;;;17.96;56.79;99861.44;5129486;27;20027;-66
2022/12/29 00:51:48;;;;;;;2.77;1.50;;;;;;;17.13;60.19;99853.53;5109682;27;20081;-67
2022/12/29 00:54:15;;;;;;;3.57;1.37;;;;;;;18.44;57.73;99851.63;5108872;27;20573;-66
2022/12/29 00:56:40;;;;;;;4.60;1.40;;;;;;;17.88;58.42;99858.34;5128363;27;20440;-66
2022/12/29 00:59:10;;;;;;;1.53;1.40;;;;;;;17.27;60.63;99866.03;5108347;27;20076;-67
2022/12/29 01:01:37;;;;;;;2.73;1.60;;;;;;;17.71;60.54;99872.47;5127310;27;20035;-66
2022/12/29 01:04:04;;;;;;;2.40;1.30;;;;;;;17.74;61.41;99862.59;5110492;27;20027;-67
2022/12/29 01:06:29;;;;;;;3.70;1.40;;;;;;;16.41;66.29;99864.19;5127689;27;20122;-66
2022/12/29 01:11:39;;;;;;;1.60;1.50;;;;;;;16.91;65.96;99861.72;5129567;27;20167;-66
2022/12/29 01:14:05;;;;;;;2.00;1.27;;;;;;;16.33;70.15;99861.09;5108559;27;20129;-66
2022/12/29 01:16:32;;;;;;;1.40;1.00;;;;;;;16.86;67.39;99851.41;5109466;27;20023;-66
2022/12/29 01:18:57;;;;;;;2.50;1.40;;;;;;;16.24;70.07;99866.81;5110914;27;20074;-67
2022/12/29 01:21:23;;;;;;;7.03;1.20;;;;;;;17.35;64.84;99874.41;5123379;27;20034;-66
2022/12/29 01:23:48;;;;;;;7.13;2.63;;;;;;;17.13;65.48;99862.34;5125838;27;20367;-67
2022/12/29 01:26:16;;;;;;;3.67;2.67;;;;;;;16.67;67.59;99858.56;5108206;27;20038;-66
2022/12/29 01:28:41;;;;;;;2.67;1.73;;;;;;;16.61;67.74;99855.28;5126568;27;20538;-66
2022/12/29 01:31:08;;;;;;;1.70;1.60;;;;;;;17.52;62.70;99847.06;5130128;27;20110;-66
2022/12/29 01:33:33;;;;;;;2.80;1.77;;;;;;;17.04;65.14;99849.59;5128252;27;20030;-65
2022/12/29 01:36:10;;;;;;;4.97;1.80;;;;;;;17.22;66.55;99860.13;5111039;27;20031;-68
2022/12/29 01:38:37;;;;;;;2.33;1.70;;;;;;;16.74;67.84;99844.94;5126627;27;20126;-66
2022/12/29 01:41:03;;;;;;;5.90;2.20;;;;;;;16.34;70.20;99848.78;5127528;27;20519;-66
2022/12/29 01:43:56;;;;;;;3.73;1.63;;;;;;;16.78;68.51;99851.78;5108683;27;20030;-66
2022/12/29 01:46:41;;;;;;;6.43;1.75;;;;;;;17.21;64.79;99832.03;5127973;27;20031;-67
2022/12/29 01:49:19;;;;;;;2.47;1.37;;;;;;;16.86;66.54;99843.47;5128137;27;20049;-67
2022/12/29 01:51:50;;;;;;;3.73;1.30;;;;;;;17.20;64.50;99852.31;5128256;27;20037;-66
2022/12/29 01:54:32;;;;;;;5.90;1.17;;;;;;;17.19;62.43;99861.16;5127064;27;20027;-67
2022/12/29 01:57:00;;;;;;;4.43;1.30;;;;;;;16.92;63.98;99853.72;5128246;28;20028;-66
2022/12/29 01:59:36;;;;;;;2.83;1.27;;;;;;;16.96;64.08;99846.53;5124239;28;20023;-67
2022/12/29 02:02:02;;;;;;;3.77;1.17;;;;;;;17.67;58.78;99855.06;5110309;28;20371;-67
2022/12/29 02:04:31;;;;;;;3.00;1.00;;;;;;;17.57;59.56;99860.00;5128352;28;20047;-67
2022/12/29 02:07:03;;;;;;;4.83;0.97;;;;;;;16.76;62.02;99869.50;5094711;28;20031;-68
2022/12/29 02:09:28;;;;;;;5.03;1.10;;;;;;;17.50;60.02;99879.78;5103252;28;20125;-69
2022/12/29 02:11:54;;;;;;;4.03;1.20;;;;;;;17.78;56.98;99877.34;5129190;28;20485;-67
2022/12/29 02:14:19;;;;;;;2.30;1.10;;;;;;;17.67;56.68;99869.16;5108541;28;20474;-67
2022/12/29 02:17:03;;;;;;;2.93;1.00;;;;;;;17.67;58.99;99866.53;5109805;28;20043;-68
2022/12/29 02:20:16;;;;;;;5.27;1.20;;;;;;;17.97;55.73;99847.28;5109399;28;20051;-67
2022/12/29 02:23:19;;;;;;;4.07;0.95;;;;;;;17.00;58.40;99849.88;5080656;28;20072;-68
2022/12/29 02:26:14;;;;;;;3.95;1.20;;;;;;;17.81;56.72;99850.72;5129633;28;20056;-67
2022/12/29 02:29:16;;;;;;;5.03;0.97;;;;;;;17.57;58.15;99850.31;5124886;28;20087;-67
2022/12/29 02:31:48;;;;;;;7.07;1.20;;;;;;;16.67;61.75;99853.28;5110082;28;20118;-67
2022/12/29 02:34:48;;;;;;;4.60;1.30;;;;;;;16.36;62.73;99850.41;5129643;28;20099;-67
2022/12/29 02:37:24;;;;;;;4.03;1.00;;;;;;;16.71;59.19;99865.38;5126125;28;20138;-67
2022/12/29 02:39:50;;;;;;;7.87;1.10;;;;;;;17.02;58.79;99859.41;5129226;28;20029;-68
2022/12/29 02:42:36;;;;;;;6.17;0.93;;;;;;;16.93;58.68;99854.59;5127602;27;20577;-67
2022/12/29 02:45:26;;;;;;;6.83;0.90;;;;;;;17.23;56.85;99857.41;5112559;27;20030;-68
2022/12/29 02:48:06;;;;;;;2.10;0.80;;;;;;;16.25;59.41;99863.25;5130914;27;20535;-68
2022/12/29 02:50:43;;;;;;;3.70;1.23;;;;;;;16.42;59.14;99865.91;5119402;27;20031;-67
2022/12/29 02:53:15;;;;;;;6.03;0.87;;;;;;;16.39;59.27;99860.78;5105564;27;20397;-67
2022/12/29 02:55:48;;;;;;;5.63;1.42;;;;;;;17.15;57.33;99858.78;5129585;27;20017;-68
2022/12/29 02:58:20;;;;;;;6.70;1.10;;;;;;;16.70;56.26;99858.38;5132961;27;20035;-67
2022/12/29 03:01:03;;;;;;;6.53;1.50;;;;;;;16.87;55.80;99854.88;5130294;27;20030;-68
2022/12/29 03:03:47;;;;;;;4.17;1.00;;;;;;;16.81;56.46;99855.22;5114960;27;20027;-68
2022/12/29 03:06:34;;;;;;;9.40;1.20;;;;;;;16.92;56.13;99856.38;5131354;27;20051;-68
2022/12/29 03:09:05;;;;;;;8.80;1.57;;;;;;;16.12;58.38;99863.00;5133018;27;20042;-67
2022/12/29 03:18:05;;;;;;;6.63;0.93;;;;;;;17.05;54.66;99848.69;5125847;27;20050;-68
2022/12/29 03:20:44;;;;;;;6.50;1.40;;;;;;;16.26;56.36;99834.16;5111519;27;20587;-68
2022/12/29 03:23:11;;;;;;;9.10;1.10;;;;;;;16.45;56.82;99842.00;5113321;27;20054;-68
2022/12/29 03:25:44;;;;;;;7.67;2.03;;;;;;;17.76;52.95;99836.06;5113701;27;20033;-68
2022/12/29 03:28:13;;;;;;;4.30;1.02;;;;;;;16.02;57.08;99840.63;5105090;27;20024;-68
2022/12/29 03:30:41;;;;;;;8.67;0.93;;;;;;;16.88;54.70;99840.75;5130340;27;20030;-68
2022/12/29 03:33:12;;;;;;;7.17;1.23;;;;;;;17.37;53.30;99832.91;5097608;27;20106;-68
2022/12/29 03:35:41;;;;;;;8.13;1.30;;;;;;;16.49;56.15;99834.81;5110980;27;20051;-67
2022/12/29 03:38:06;;;;;;;6.17;1.77;;;;;;;16.48;54.47;99834.88;5132178;27;20110;-68
2022/12/29 03:40:34;;;;;;;4.47;0.70;;;;;;;16.38;54.69;99831.88;5132350;27;20117;-68
2022/12/29 03:43:00;;;;;;;3.47;0.90;;;;;;;16.25;57.88;99836.88;5131802;27;20030;-67
2022/12/29 03:45:25;;;;;;;5.03;0.90;;;;;;;16.92;55.67;99845.81;5111498;27;20118;-67
2022/12/29 03:47:52;;;;;;;5.97;1.20;;;;;;;15.80;57.89;99838.16;5131570;27;20039;-68
2022/12/29 03:50:18;;;;;;;8.33;1.00;;;;;;;16.40;57.34;99849.31;5103198;28;20020;-68
2022/12/29 03:52:43;;;;;;;8.40;1.57;;;;;;;16.61;57.17;99841.25;5117825;27;20067;-68
2022/12/29 03:55:09;;;;;;;4.10;0.77;;;;;;;15.90;58.53;99847.38;5124500;27;20023;-67
2022/12/29 03:57:34;;;;;;;5.70;1.00;;;;;;;16.56;56.41;99854.66;5131766;27;20482;-68
2022/12/29 04:00:00;;;;;;;5.60;1.40;;;;;;;15.69;57.77;99860.59;5113971;27;20019;-68
2022/12/29 04:02:25;;;;;;;10.03;1.30;;;;;;;15.88;58.44;99854.47;5129654;27;20035;-67
2022/12/29 04:04:51;;;;;;;8.23;1.20;;;;;;;16.46;55.94;99853.44;5128179;27;20038;-68
2022/12/29 04:07:16;;;;;;;9.33;1.40;;;;;;;16.71;55.54;99866.22;5113764;27;20444;-67
2022/12/29 04:09:41;;;;;;;7.67;1.80;;;;;;;16.38;55.03;99864.34;5130805;27;20066;-67
2022/12/29 04:12:07;;;;;;;9.70;1.27;;;;;;;16.58;54.45;99865.13;5133129;27;20027;-68
2022/12/29 04:14:32;;;;;;;8.73;1.37;;;;;;;16.54;54.31;99858.31;5111636;27;20071;-67
2022/12/29 04:16:57;;;;;;;9.03;1.27;;;;;;;15.71;55.19;99879.78;5127652;27;20426;-67
2022/12/29 04:19:23;;;;;;;11.10;1.57;;;;;;;16.36;55.08;99860.94;5112684;27;20027;-67
2022/12/29 04:21:48;;;;;;;7.70;1.40;;;;;;;16.39;54.74;99866.06;5112976;27;20114;-68
2022/12/29 04:24:13;;;;;;;11.33;1.60;;;;;;;16.40;55.55;99872.19;5112320;27;20394;-67
2022/12/29 04:26:39;;;;;;;8.60;1.40;;;;;;;16.04;57.29;99871.25;5094821;27;20059;-68
2022/12/29 04:29:04;;;;;;;10.90;2.00;;;;;;;15.66;58.03;99865.13;5113656;27;20023;-67
2022/12/29 04:31:30;;;;;;;12.47;2.80;;;;;;;16.55;55.18;99860.00;5110007;27;20034;-68
2022/12/29 04:33:57;;;;;;;7.77;1.30;;;;;;;15.90;57.85;99863.19;5112108;28;20037;-67
2022/12/29 04:36:22;;;;;;;12.03;2.37;;;;;;;17.17;53.67;99864.81;5130190;27;20027;-68
2022/12/29 04:38:48;;;;;;;10.40;2.77;;;;;;;15.58;58.93;99860.25;5129117;27;20075;-68
2022/12/29 04:41:13;;;;;;;8.03;2.00;;;;;;;15.72;58.76;99870.97;5113051;27;20014;-68
2022/12/29 04:43:38;;;;;;;11.03;1.93;;;;;;;15.99;57.19;99867.13;5112411;27;20023;-67
2022/12/29 04:46:04;;;;;;;10.93;1.93;;;;;;;16.14;56.38;99860.28;5129615;27;20037;-68
2022/12/29 04:48:30;;;;;;;9.73;2.07;;;;;;;16.12;56.92;99878.81;5129198;27;20102;-68
2022/12/29 04:50:55;;;;;;;10.90;2.27;;;;;;;16.52;55.24;99870.72;5132271;27;20030;-68
2022/12/29 04:53:20;;;;;;;12.13;2.27;;;;;;;16.27;57.10;99877.22;5129590;27;20367;-67
2022/12/29 04:55:51;;;;;;;15.40;3.10;;;;;;;16.29;54.94;99880.63;5109587;28;20031;-68
2022/12/29 04:58:17;;;;;;;13.17;1.50;;;;;;;15.84;57.17;99889.78;5112462;27;20031;-67
2022/12/29 05:00:42;;;;;;;11.27;1.87;;;;;;;15.76;57.23;99893.63;5131612;27;20150;-68
2022/12/29 05:03:08;;;;;;;11.67;1.80;;;;;;;16.11;57.49;99895.53;5129833;27;20023;-67
2022/12/29 05:05:33;;;;;;;14.20;2.07;;;;;;;16.49;57.12;99911.28;5110171;28;20383;-67
2022/12/29 05:07:58;;;;;;;9.73;1.97;;;;;;;16.02;60.66;99904.75;5129433;27;20109;-66
2022/12/29 05:10:24;;;;;;;13.80;2.33;;;;;;;16.87;56.03;99910.28;5113142;27;20023;-67
2022/12/29 05:12:49;;;;;;;17.30;2.00;;;;;;;16.10;58.39;99897.34;5126311;27;20027;-67
2022/12/29 05:15:14;;;;;;;7.13;1.53;;;;;;;16.09;60.40;99903.53;5130853;27;20466;-67
2022/12/29 05:17:40;;;;;;;7.90;1.77;;;;;;;16.14;58.82;99903.28;5110922;27;20072;-67
2022/12/29 05:20:06;;;;;;;16.87;2.40;;;;;;;15.15;62.96;99922.72;5130677;27;20402;-67
2022/12/29 05:22:32;;;;;;;16.80;2.20;;;;;;;16.91;56.94;99911.88;5107421;27;20486;-67
2022/12/29 05:24:57;;;;;;;10.27;1.70;;;;;;;15.97;59.85;99916.44;5130220;27;20054;-67
2022/12/29 05:27:22;;;;;;;16.90;1.90;;;;;;;16.03;60.44;99917.03;5129834;27;20049;-66
2022/12/29 05:29:48;;;;;;;17.07;1.87;;;;;;;16.07;59.72;99907.16;5113489;27;20499;-66
2022/12/29 05:32:13;;;;;;;11.37;2.80;;;;;;;16.80;57.21;99912.38;5128474;27;20055;-66
2022/12/29 05:34:38;;;;;;;18.70;3.10;;;;;;;15.26;60.60;99931.00;5107684;27;20114;-67
2022/12/29 05:37:04;;;;;;;15.07;2.53;;;;;;;15.51;60.32;99928.13;5107512;27;20023;-67
2022/12/29 05:39:29;;;;;;;14.47;1.90;;;;;;;15.52;60.24;99926.34;5111573;27;20022;-67
2022/12/29 05:41:55;;;;;;;18.77;2.53;;;;;;;14.69;64.16;99926.38;5112367;27;20166;-66
2022/12/29 05:44:20;;;;;;;15.03;2.33;;;;;;;15.48;61.46;99930.03;5129501;27;20399;-66
2022/12/29 05:46:45;;;;;;;17.73;2.27;;;;;;;15.56;60.96;99931.41;5129684;27;20029;-67
2022/12/29 05:49:11;;;;;;;19.00;2.30;;;;;;;15.26;61.80;99936.25;5127093;27;20037;-66
2022/12/29 05:51:36;;;;;;;11.03;1.63;;;;;;;15.39;63.97;99926.91;5124078;27;20035;-67
2022/12/29 05:54:02;;;;;;;13.53;2.07;;;;;;;15.56;62.42;99928.75;5104263;27;20110;-67
2022/12/29 05:56:27;;;;;;;17.27;1.73;;;;;;;15.10;62.81;99931.66;5122683;28;20420;-67
2022/12/29 05:58:53;;;;;;;14.20;2.27;;;;;;;16.10;60.25;99921.06;5107164;28;20478;-67
2022/12/29 06:01:18;;;;;;;15.97;2.00;;;;;;;16.22;57.49;99932.78;5103119;28;20047;-67
2022/12/29 06:03:43;;;;;;;24.80;2.70;;;;;;;16.38;58.93;99932.06;5122583;28;20023;-67
2022/12/29 06:06:09;;;;;;;12.33;1.97;;;;;;;16.36;58.45;99950.63;5101893;28;20093;-67
2022/12/29 06:08:35;;;;;;;11.83;1.97;;;;;;;15.17;61.59;99947.22;5102596;28;20489;-67
2022/12/29 06:11:00;;;;;;;16.10;2.00;;;;;;;15.24;62.79;99935.47;5102759;28;20088;-67
2022/12/29 06:13:27;;;;;;;18.13;2.47;;;;;;;14.48;64.72;99959.66;5102223;28;20031;-67
2022/12/29 06:15:53;;;;;;;10.13;1.70;;;;;;;14.96;63.61;99955.09;5100636;28;20027;-67
2022/12/29 06:18:18;;;;;;;14.73;2.73;;;;;;;15.02;61.84;99972.41;5111041;28;20372;-68
2022/12/29 06:20:43;;;;;;;18.60;2.20;;;;;;;15.24;60.74;99935.47;5112170;28;20028;-67
2022/12/29 06:23:09;;;;;;;19.90;2.73;;;;;;;15.32;60.50;99943.91;5111651;28;20035;-68
2022/12/29 06:25:35;;;;;;;23.87;2.00;;;;;;;15.20;59.59;99941.81;5104597;28;20026;-67
2022/12/29 06:28:02;;;;;;;9.63;2.10;;;;;;;15.47;58.90;99941.50;5109814;28;20371;-68
2022/12/29 06:30:27;;;;;;;12.77;2.40;;;;;;;15.03;58.45;99930.22;5109356;27;20107;-68
2022/12/29 06:32:54;;;;;;;23.30;2.57;;;;;;;16.44;54.62;99935.28;5112557;28;20102;-68
2022/12/29 06:35:19;;;;;;;16.53;2.70;;;;;;;16.07;54.74;99944.94;5105708;28;20073;-68
2022/12/29 06:37:44;;;;;;;16.07;3.70;;;;;;;15.38;56.84;99951.50;5110659;28;20032;-68
2022/12/29 06:40:11;;;;;;;16.40;2.00;;;;;;;15.03;58.05;99946.00;5102750;27;20032;-67
2022/12/29 06:42:37;;;;;;;18.23;2.67;;;;;;;15.71;55.55;99937.75;5103694;27;20055;-66
2022/12/29 06:45:02;;;;;;;15.03;2.67;;;;;;;15.90;55.01;99943.06;5100443;27;20029;-69
2022/12/29 06:47:28;;;;;;;17.90;2.67;;;;;;;16.03;53.61;99946.00;5104591;28;20451;-66
2022/12/29 06:49:53;;;;;;;12.87;2.17;;;;;;;15.60;54.41;99948.78;5107103;28;20024;-67
2022/12/29 06:52:19;;;;;;;14.80;1.90;;;;;;;15.10;54.76;99951.88;5096313;28;20020;-67
2022/12/29 06:54:44;;;;;;;11.93;2.40;;;;;;;15.19;56.08;99951.44;5095659;28;20416;-67
2022/12/29 06:57:09;;;;;;;10.03;1.70;;;;;;;15.14;57.32;99952.56;5099975;27;20031;-67
2022/12/29 06:59:35;;;;;;;14.03;1.80;;;;;;;14.70;57.30;99959.66;5110381;28;20027;-68
2022/12/29 07:02:01;;;;;;;12.63;1.63;;;;;;;16.08;52.46;99953.69;5111322;28;20023;-68
2022/12/29 07:04:27;;;;;;;6.83;1.80;;;;;;;14.27;58.40;99953.44;5115966;27;20470;-68
2022/12/29 07:06:53;;;;;;;9.30;2.50;;;;;;;15.26;55.86;99963.44;5109329;27;20023;-67
2022/12/29 07:09:19;;;;;;;8.47;2.13;;;;;;;15.76;54.46;99969.19;5087022;27;20037;-67
2022/12/29 07:11:44;;;;;;;14.70;1.97;;;;;;;15.83;54.72;99967.16;5106045;27;20041;-68
2022/12/29 07:14:11;;;;;;;10.37;1.80;;;;;;;15.78;54.87;99970.81;5126987;27;20023;-67
2022/12/29 07:16:36;;;;;;;15.07;2.70;;;;;;;14.97;58.08;99966.47;5131359;27;20023;-67
2022/12/29 07:19:02;;;;;;;12.57;2.00;;;;;;;15.23;56.63;99962.72;5092483;27;20081;-68
2022/12/29 07:21:28;;;;;;;17.93;2.30;;;;;;;14.52;59.00;99965.63;5101514;27;20074;-67
2022/12/29 07:23:54;;;;;;;11.73;1.77;;;;;;;14.49;59.77;99965.75;5110207;27;20023;-67
2022/12/29 07:26:19;;;;;;;12.07;2.87;;;;;;;14.86;59.64;99985.31;5113175;27;20027;-68
2022/12/29 07:28:45;;;;;;;11.73;1.90;;;;;;;14.07;60.53;99975.25;5115189;27;20023;-66
2022/12/29 07:31:21;;;;;;;10.97;2.20;;;;;;;15.16;59.24;99984.97;5131702;27;20031;-67
2022/12/29 07:33:47;;;;;;;18.87;2.90;;;;;;;14.76;58.29;99975.16;5115503;27;20478;-67
2022/12/29 07:36:14;;;;;;;11.20;2.30;;;;;;;14.91;58.24;99978.09;5133968;27;20033;-67
2022/12/29 07:38:40;;;;;;;10.27;2.17;;;;;;;14.97;57.25;99983.09;5133476;27;20031;-67
2022/12/29 07:41:05;;;;;;;16.03;2.23;;;;;;;15.02;57.06;99970.59;5129260;27;20470;-68
2022/12/29 07:43:30;;;;;;;10.73;1.70;;;;;;;15.93;54.67;99963.16;5109901;27;20527;-67
2022/12/29 07:45:56;;;;;;;22.40;4.17;;;;;;;15.62;55.63;99975.06;5133296;27;20031;-68
2022/12/29 07:48:22;;;;;;;15.17;2.63;;;;;;;15.75;55.42;99976.22;5131161;27;20185;-67
2022/12/29 07:50:47;;;;;;;14.77;2.27;;;;;;;15.74;54.99;99973.66;5132417;27;20043;-68
2022/12/29 07:53:13;;;;;;;12.63;2.43;;;;;;;15.01;56.15;99979.41;5132701;27;20027;-68
2022/12/29 07:55:38;;;;;;;12.57;2.67;;;;;;;15.72;54.14;99970.25;5131211;27;20031;-68
2022/12/29 07:58:04;;;;;;;18.27;2.77;;;;;;;15.86;52.95;99974.91;5099559;27;20027;-68
2022/12/29 08:00:29;;;;;;;20.03;3.67;;;;;;;15.12;54.18;99975.50;5102563;27;20502;-67
2022/12/29 08:02:55;;;;;;;20.17;3.80;;;;;;;14.91;55.13;99978.09;5105311;27;20127;-67
2022/12/29 08:05:20;;;;;;;24.20;4.20;;;;;;;16.14;52.62;99971.00;5127781;27;20562;-68
2022/12/29 08:07:46;;;;;;;14.00;2.63;;;;;;;15.57;53.20;99961.25;5122805;27;20030;-67
2022/12/29 08:10:13;;;;;;;27.93;3.47;;;;;;;15.33;53.49;99985.09;5106983;27;20023;-68
2022/12/29 08:12:39;;;;;;;25.47;2.77;;;;;;;15.49;52.79;99985.28;5126913;27;20023;-68
2022/12/29 08:15:06;;;;;;;16.43;3.33;;;;;;;15.38;54.87;99977.84;5108745;27;20375;-67
2022/12/29 08:17:32;;;;;;;10.10;2.07;;;;;;;15.01;55.10;99973.31;5108738;27;20030;-68
2022/12/29 08:19:58;;;;;;;16.73;2.07;;;;;;;15.20;54.57;99981.28;5110283;27;20035;-67
2022/12/29 08:22:23;;;;;;;15.87;3.57;;;;;;;15.78;54.34;99978.72;5127985;27;20414;-68
2022/12/29 08:24:48;;;;;;;19.47;2.53;;;;;;;15.54;54.62;99979.81;5106636;27;20034;-68
2022/12/29 08:27:14;;;;;;;20.47;4.17;;;;;;;15.14;55.63;99973.63;5105136;27;20007;-67
2022/12/29 08:29:39;;;;;;;20.77;2.50;;;;;;;14.62;58.60;99974.88;5130624;27;20031;-67
2022/12/29 08:32:05;;;;;;;22.70;4.03;;;;;;;15.74;55.97;99994.72;5105134;27;20170;-67
2022/12/29 08:34:31;;;;;;;17.07;2.90;;;;;;;14.54;59.96;99984.84;5124009;27;20023;-67
2022/12/29 08:36:57;;;;;;;18.13;2.40;;;;;;;14.48;60.14;100001.72;5105946;27;20031;-69
2022/12/29 08:39:22;;;;;;;17.90;3.93;;;;;;;15.73;56.41;100008.81;5126157;27;20027;-66
2022/12/29 08:41:47;;;;;;;27.53;3.20;;;;;;;14.94;59.00;100009.53;5123145;27;20097;-67
2022/12/29 08:44:13;;;;;;;12.73;2.40;;;;;;;14.50;61.85;100009.53;5107432;27;20134;-68
2022/12/29 08:46:38;;;;;;;22.60;2.80;;;;;;;14.69;63.57;100023.69;5126339;27;20033;-67
2022/12/29 08:49:04;;;;;;;18.90;2.27;;;;;;;14.95;60.79;100021.78;5129379;27;20043;-67
2022/12/29 08:51:29;;;;;;;24.50;2.37;;;;;;;14.95;62.74;100016.53;5125662;27;20026;-67
2022/12/29 08:53:55;;;;;;;18.53;2.47;;;;;;;14.57;64.57;100032.88;5112047;27;20030;-66
2022/12/29 08:56:20;;;;;;;14.37;2.57;;;;;;;14.64;65.49;100041.41;5119696;27;20031;-67
2022/12/29 08:58:46;;;;;;;17.90;2.67;;;;;;;15.35;60.21;100035.91;5118879;27;20059;-66
2022/12/29 09:01:36;;;;;;;15.90;2.77;;;;;;;14.74;62.23;100055.94;5146672;27;20131;-67
2022/12/29 09:04:01;;;;;;;17.87;2.53;;;;;;;14.22;66.19;100058.75;5110551;27;20030;-66
2022/12/29 09:06:27;;;;;;;13.37;2.80;;;;;;;14.26;68.83;100038.50;5108884;28;20051;-66
2022/12/29 09:08:53;;;;;;;13.40;2.53;;;;;;;14.23;67.74;100038.59;5115415;27;20019;-66
2022/12/29 09:11:22;;;;;;;14.90;2.20;;;;;;;13.49;71.68;100057.00;5136260;27;20028;-66
2022/12/29 09:13:48;;;;;;;18.70;2.33;;;;;;;14.34;70.18;100065.34;5101230;28;20027;-66
2022/12/29 09:16:14;;;;;;;13.07;2.30;;;;;;;14.98;65.06;100066.38;5104458;27;20432;-66
2022/12/29 09:18:39;;;;;;;19.30;2.53;;;;;;;14.90;64.21;100073.75;5109887;27;20432;-66
2022/12/29 09:21:06;;;;;;;17.67;2.30;;;;;;;15.75;63.90;100065.78;5115066;27;20026;-66
2022/12/29 09:23:33;;;;;;;10.80;1.87;;;;;;;14.43;69.13;100078.13;5131034;27;20275;-65
2022/12/29 09:25:59;;;;;;;11.23;2.30;;;;;;;14.14;70.05;100071.34;5121856;27;20039;-65
2022/12/29 09:28:24;;;;;;;14.77;3.13;;;;;;;14.67;69.13;100080.78;5070449;28;20041;-66
2022/12/29 09:30:50;;;;;;;14.47;2.50;;;;;;;14.88;68.52;100094.00;5125152;27;20374;-66
2022/12/29 09:33:16;;;;;;;11.30;1.93;;;;;;;14.59;68.30;100103.84;5106594;27;20035;-66
2022/12/29 09:35:50;;;;;;;16.20;3.10;;;;;;;14.73;68.21;100080.53;5111410;27;20128;-67
2022/12/29 09:38:16;;;;;;;17.73;2.70;;;;;;;13.94;71.03;100098.31;5131752;27;20027;-67
2022/12/29 09:40:45;;;;;;;10.93;2.00;;;;;;;14.99;67.36;100107.59;5127396;27;20027;-66
2022/12/29 09:43:52;;;;;;;9.43;1.90;;;;;;;14.85;67.80;100110.75;5143625;27;20682;-67
2022/12/29 09:46:35;;;;;;;13.80;2.37;;;;;;;14.52;68.53;100139.16;5122165;28;20035;-67
2022/12/29 09:49:20;;;;;;;11.43;2.47;;;;;;;14.75;68.33;100131.31;5103750;27;20027;-66
2022/12/29 09:51:53;;;;;;;16.53;2.27;;;;;;;14.34;69.65;100138.94;5130297;27;20037;-66
2022/12/29 09:54:41;;;;;;;15.85;2.47;;;;;;;15.58;62.87;100136.81;5118417;28;20089;-66
2022/12/29 09:57:20;;;;;;;16.60;2.43;;;;;;;15.86;61.43;100136.50;5096821;28;20042;-66
2022/12/29 09:59:48;;;;;;;18.40;2.53;;;;;;;15.72;62.66;100152.03;5099866;28;20036;-66
2022/12/29 10:02:54;;;;;;;9.50;2.13;;;;;;;15.65;64.37;100148.78;5105195;28;20023;-66
2022/12/29 10:05:45;;;;;;;16.13;3.20;;;;;;;15.26;65.71;100162.66;5104508;28;20053;-66
2022/12/29 10:08:32;;;;;;;17.00;2.97;;;;;;;15.93;62.21;100164.28;5098739;28;20020;-66
2022/12/29 10:11:20;;;;;;;16.10;4.33;;;;;;;15.40;63.39;100181.41;5094948;28;20028;-65
2022/12/29 10:14:08;;;;;;;16.97;3.43;;;;;;;16.02;62.61;100184.16;5089967;28;20108;-67
2022/12/29 10:17:06;;;;;;;23.13;4.17;;;;;;;15.69;62.14;100182.00;5085699;28;20028;-67
2022/12/29 10:19:31;;;;;;;19.47;3.27;;;;;;;15.73;60.78;100199.38;5077504;28;20024;-66
2022/12/29 10:22:15;;;;;;;22.87;4.10;;;;;;;16.69;58.37;100195.28;5086093;28;20081;-65
2022/12/29 10:24:44;;;;;;;17.17;4.47;;;;;;;15.90;61.94;100211.88;5089797;28;20035;-66
2022/12/29 10:27:15;;;;;;;20.77;3.57;;;;;;;15.72;63.42;100213.47;5080886;28;20016;-65
2022/12/29 10:29:47;;;;;;;21.27;4.30;;;;;;;15.45;63.80;100215.44;5086177;28;20023;-66
2022/12/29 10:32:37;;;;;;;23.35;3.85;;;;;;;15.47;64.02;100233.81;5089348;28;20036;-66
2022/12/29 10:35:18;;;;;;;17.37;3.00;;;;;;;16.55;59.58;100224.91;5092523;28;20114;-66
2022/12/29 10:38:07;;;;;;;26.37;4.33;;;;;;;15.95;61.75;100232.78;5099650;28;20032;-66
2022/12/29 10:40:38;;;;;;;37.00;3.90;;;;;;;15.69;62.56;100228.53;5098079;28;20038;-66
2022/12/29 10:43:20;;;;;;;25.03;3.87;;;;;;;16.50;60.54;100237.47;5087387;28;20562;-67
2022/12/29 10:45:47;;;;;;;34.93;4.03;;;;;;;16.94;59.31;100233.78;5086329;28;20023;-66
2022/12/29 10:48:22;;;;;;;25.60;4.03;;;;;;;16.75;57.26;100237.22;5088963;28;20039;-67
2022/12/29 10:50:48;;;;;;;28.37;4.50;;;;;;;16.59;58.91;100244.94;5088215;28;20110;-67
2022/12/29 10:53:25;;;;;;;27.57;3.80;;;;;;;15.99;58.94;100234.38;5087256;28;20038;-67
2022/12/29 10:55:52;;;;;;;47.73;5.27;;;;;;;17.17;55.55;100245.03;5087319;28;20024;-68
2022/12/29 10:58:18;;;;;;;26.90;4.20;;;;;;;15.59;57.75;100243.84;5087843;28;20058;-67
2022/12/29 11:00:50;;;;;;;22.63;3.70;;;;;;;16.66;56.39;100261.34;5085361;28;20555;-67
2022/12/29 11:03:22;;;;;;;32.90;3.90;;;;;;;15.80;59.15;100267.66;5087737;28;20035;-66
2022/12/29 11:06:12;;;;;;;19.57;3.23;;;;;;;16.57;57.11;100267.06;5086580;28;20042;-66
2022/12/29 11:08:46;;;;;;;31.87;4.67;;;;;;;16.18;58.22;100278.41;5090094;28;20032;-66
2022/12/29 11:11:11;;;;;;;31.30;4.53;;;;;;;16.04;58.77;100274.53;5089807;28;20487;-69
2022/12/29 11:13:56;;;;;;;28.93;4.50;;;;;;;16.91;56.63;100284.03;5087749;28;20016;-67
2022/12/29 11:16:34;;;;;;;25.67;4.17;;;;;;;16.78;57.46;100281.06;5085549;28;20086;-67
2022/12/29 11:19:00;;;;;;;38.47;4.83;;;;;;;15.96;58.56;100289.81;5089226;28;20067;-67
2022/12/29 11:21:41;;;;;;;30.77;5.53;;;;;;;16.72;56.43;100284.84;5091119;28;20023;-67
2022/12/29 11:24:25;;;;;;;37.10;5.10;;;;;;;16.35;57.65;100286.44;5087042;28;20036;-67
2022/12/29 11:27:16;;;;;;;29.93;4.40;;;;;;;16.96;54.56;100292.63;5089497;28;20015;-67
2022/12/29 11:29:44;;;;;;;31.37;4.40;;;;;;;16.13;58.46;100290.91;5090743;28;20028;-67
2022/12/29 11:32:23;;;;;;;31.77;4.60;;;;;;;16.79;57.77;100302.13;5087974;28;20120;-66
2022/12/29 11:34:48;;;;;;;32.13;3.73;;;;;;;16.41;58.91;100302.00;5090357;28;20050;-67
2022/12/29 11:37:23;;;;;;;22.27;3.33;;;;;;;16.43;58.05;100309.84;5099283;28;20028;-66
2022/12/29 11:39:51;;;;;;;27.87;4.60;;;;;;;16.01;58.99;100293.13;5087338;28;20402;-67
2022/12/29 11:42:22;;;;;;;23.27;3.43;;;;;;;15.74;59.88;100306.50;5104930;28;20120;-66
2022/12/29 11:44:50;;;;;;;20.27;3.20;;;;;;;15.82;59.40;100315.88;5107591;28;20050;-67
2022/12/29 11:47:32;;;;;;;31.40;4.30;;;;;;;15.98;57.42;100327.53;5097199;28;20023;-67
2022/12/29 11:50:01;;;;;;;26.07;3.63;;;;;;;16.43;55.80;100310.72;5103617;28;20023;-67
2022/12/29 11:52:32;;;;;;;21.03;3.33;;;;;;;16.39;54.93;100305.63;5109805;28;20443;-67
2022/12/29 11:55:00;;;;;;;23.90;3.30;;;;;;;17.36;53.81;100316.34;5104567;28;20390;-67
2022/12/29 11:57:27;;;;;;;20.50;3.37;;;;;;;16.97;53.12;100326.03;5098332;28;20688;-67
2022/12/29 11:59:55;;;;;;;23.43;3.63;;;;;;;16.65;55.22;100317.72;5103696;27;20047;-66
2022/12/29 12:02:33;;;;;;;30.50;5.10;;;;;;;16.33;54.52;100324.34;5112414;27;20064;-66
2022/12/29 12:05:23;;;;;;;24.63;4.30;;;;;;;16.55;54.84;100324.31;5120914;27;20039;-66
2022/12/29 12:08:10;;;;;;;19.53;3.23;;;;;;;16.96;54.19;100319.88;5115246;27;20024;-66
2022/12/29 12:10:46;;;;;;;21.13;3.63;;;;;;;16.70;54.40;100318.34;5087917;28;20046;-66
2022/12/29 12:13:22;;;;;;;22.33;3.73;;;;;;;16.99;53.20;100329.44;5071183;28;20031;-66
2022/12/29 12:16:01;;;;;;;27.07;3.60;;;;;;;17.48;52.03;100320.22;5105553;28;20084;-66
2022/12/29 12:18:39;;;;;;;19.43;3.17;;;;;;;16.55;54.13;100324.31;5106032;28;20113;-66